sensor_id;sensor_type;location;lat;lon;timestamp;temperature;humidity
7476;DHT22;3779;49.216;8.650;2023-08-31T00:32:50;25.40;61.70
7476;DHT22;3779;49.216;8.650;2023-08-31T00:35:36;25.50;61.80
7476;DHT22;3779;49.216;8.650;2023-08-31T00:38:22;25.50;61.70
7476;DHT22;3779;49.216;8.650;2023-08-31T00:41:08;25.50;62.10
7476;DHT22;3779;49.216;8.650;2023-08-31T00:43:54;25.50;61.30
7476;DHT22;3779;49.216;8.650;2023-08-31T00:46:40;25.50;61.90
7476;DHT22;3779;49.216;8.650;2023-08-31T00:49:26;25.50;62.10
7476;DHT22;3779;49.216;8.650;2023-08-31T00:52:12;25.50;61.30
7476;DHT22;3779;49.216;8.650;2023-08-31T00:54:58;25.50;62.10
7476;DHT22;3779;49.216;8.650;2023-08-31T00:57:45;25.40;62.50
7476;DHT22;3779;49.216;8.650;2023-08-31T01:13:11;25.30;63.20
7476;DHT22;3779;49.216;8.650;2023-08-31T01:16:02;25.40;63.40
7476;DHT22;3779;49.216;8.650;2023-08-31T01:18:50;25.30;63.20
7476;DHT22;3779;49.216;8.650;2023-08-31T01:21:40;25.30;63.90
7476;DHT22;3779;49.216;8.650;2023-08-31T01:24:27;25.40;63.20
7476;DHT22;3779;49.216;8.650;2023-08-31T01:27:14;25.40;63.10
7476;DHT22;3779;49.216;8.650;2023-08-31T01:30:01;25.40;62.90
7476;DHT22;3779;49.216;8.650;2023-08-31T01:32:48;25.40;61.80
7476;DHT22;3779;49.216;8.650;2023-08-31T01:35:42;25.50;60.70
7476;DHT22;3779;49.216;8.650;2023-08-31T03:58:45;25.30;62.10
7476;DHT22;3779;49.216;8.650;2023-08-31T04:01:31;25.30;61.90
7476;DHT22;3779;49.216;8.650;2023-08-31T04:04:17;25.40;61.40
7476;DHT22;3779;49.216;8.650;2023-08-31T04:07:03;25.40;60.30
7476;DHT22;3779;49.216;8.650;2023-08-31T04:09:51;25.30;59.70
7476;DHT22;3779;49.216;8.650;2023-08-31T04:12:38;25.30;60.40
7476;DHT22;3779;49.216;8.650;2023-08-31T04:15:25;25.30;60.10
7476;DHT22;3779;49.216;8.650;2023-08-31T04:18:11;25.30;59.80
7476;DHT22;3779;49.216;8.650;2023-08-31T04:20:57;25.30;59.70
7476;DHT22;3779;49.216;8.650;2023-08-31T04:23:44;25.30;60.20
7476;DHT22;3779;49.216;8.650;2023-08-31T04:26:31;25.30;61.50
7476;DHT22;3779;49.216;8.650;2023-08-31T04:29:17;25.30;60.00
7476;DHT22;3779;49.216;8.650;2023-08-31T04:32:03;25.30;60.30
7476;DHT22;3779;49.216;8.650;2023-08-31T04:34:49;25.30;59.60
7476;DHT22;3779;49.216;8.650;2023-08-31T04:37:35;25.30;60.00
7476;DHT22;3779;49.216;8.650;2023-08-31T04:40:20;25.30;58.90
7476;DHT22;3779;49.216;8.650;2023-08-31T04:43:06;25.20;59.50
7476;DHT22;3779;49.216;8.650;2023-08-31T04:45:53;25.20;59.80
7476;DHT22;3779;49.216;8.650;2023-08-31T04:48:39;25.20;59.80
7476;DHT22;3779;49.216;8.650;2023-08-31T04:51:29;25.20;60.90
7476;DHT22;3779;49.216;8.650;2023-08-31T04:54:15;25.20;59.80
7476;DHT22;3779;49.216;8.650;2023-08-31T04:57:02;25.20;61.50
7476;DHT22;3779;49.216;8.650;2023-08-31T04:59:49;25.20;61.40
7476;DHT22;3779;49.216;8.650;2023-08-31T05:02:35;25.20;61.60
7476;DHT22;3779;49.216;8.650;2023-08-31T05:05:20;25.30;61.50
7476;DHT22;3779;49.216;8.650;2023-08-31T05:08:07;25.30;62.00
7476;DHT22;3779;49.216;8.650;2023-08-31T05:10:53;25.20;61.90
7476;DHT22;3779;49.216;8.650;2023-08-31T05:13:39;25.30;60.90
7476;DHT22;3779;49.216;8.650;2023-08-31T05:16:27;25.30;61.40
7476;DHT22;3779;49.216;8.650;2023-08-31T05:19:13;25.30;60.70
7476;DHT22;3779;49.216;8.650;2023-08-31T05:21:59;25.30;60.10
7476;DHT22;3779;49.216;8.650;2023-08-31T05:24:44;25.30;60.30
7476;DHT22;3779;49.216;8.650;2023-08-31T05:27:31;25.30;60.00
7476;DHT22;3779;49.216;8.650;2023-08-31T05:30:17;25.30;60.90
7476;DHT22;3779;49.216;8.650;2023-08-31T05:33:03;25.20;61.60
7476;DHT22;3779;49.216;8.650;2023-08-31T05:35:51;25.30;61.30
7476;DHT22;3779;49.216;8.650;2023-08-31T05:38:37;25.20;62.00
7476;DHT22;3779;49.216;8.650;2023-08-31T05:41:24;25.20;61.30
7476;DHT22;3779;49.216;8.650;2023-08-31T05:44:10;25.20;61.80
7476;DHT22;3779;49.216;8.650;2023-08-31T05:46:56;25.20;62.00
7476;DHT22;3779;49.216;8.650;2023-08-31T05:49:42;25.30;62.10
7476;DHT22;3779;49.216;8.650;2023-08-31T05:52:28;25.30;62.10
7476;DHT22;3779;49.216;8.650;2023-08-31T05:55:13;25.30;61.80
7476;DHT22;3779;49.216;8.650;2023-08-31T05:57:59;25.20;61.60
7476;DHT22;3779;49.216;8.650;2023-08-31T06:00:47;25.20;62.10
7476;DHT22;3779;49.216;8.650;2023-08-31T06:03:33;25.30;62.30
7476;DHT22;3779;49.216;8.650;2023-08-31T06:06:19;25.30;61.60
7476;DHT22;3779;49.216;8.650;2023-08-31T06:09:05;25.30;61.90
7476;DHT22;3779;49.216;8.650;2023-08-31T06:11:52;25.20;62.20
7476;DHT22;3779;49.216;8.650;2023-08-31T06:14:38;25.20;62.00
7476;DHT22;3779;49.216;8.650;2023-08-31T06:17:24;25.30;61.80
7476;DHT22;3779;49.216;8.650;2023-08-31T08:37:38;24.90;63.20
7476;DHT22;3779;49.216;8.650;2023-08-31T08:40:24;25.00;63.10
7476;DHT22;3779;49.216;8.650;2023-08-31T08:43:11;25.00;63.20
7476;DHT22;3779;49.216;8.650;2023-08-31T08:46:04;25.00;63.20
7476;DHT22;3779;49.216;8.650;2023-08-31T08:48:51;24.90;63.20
7476;DHT22;3779;49.216;8.650;2023-08-31T08:51:37;24.90;63.30
7476;DHT22;3779;49.216;8.650;2023-08-31T08:54:23;24.90;63.40
7476;DHT22;3779;49.216;8.650;2023-08-31T08:57:09;24.80;63.50
7476;DHT22;3779;49.216;8.650;2023-08-31T08:59:55;24.70;63.40
7476;DHT22;3779;49.216;8.650;2023-08-31T09:02:41;24.70;63.60
7476;DHT22;3779;49.216;8.650;2023-08-31T09:05:26;24.80;63.60
7476;DHT22;3779;49.216;8.650;2023-08-31T09:08:15;24.80;63.10
7476;DHT22;3779;49.216;8.650;2023-08-31T09:11:01;24.90;63.30
7476;DHT22;3779;49.216;8.650;2023-08-31T09:13:47;24.90;63.20
7476;DHT22;3779;49.216;8.650;2023-08-31T09:16:34;24.90;63.30
7476;DHT22;3779;49.216;8.650;2023-08-31T09:19:25;24.90;63.00
7476;DHT22;3779;49.216;8.650;2023-08-31T09:22:12;24.90;63.10
7476;DHT22;3779;49.216;8.650;2023-08-31T09:24:58;24.90;63.10
7476;DHT22;3779;49.216;8.650;2023-08-31T09:27:44;24.90;63.20
7476;DHT22;3779;49.216;8.650;2023-08-31T09:30:37;24.80;63.80
7476;DHT22;3779;49.216;8.650;2023-08-31T09:33:25;24.70;63.70
7476;DHT22;3779;49.216;8.650;2023-08-31T09:36:11;24.70;63.70
7476;DHT22;3779;49.216;8.650;2023-08-31T09:38:58;24.70;63.80
7476;DHT22;3779;49.216;8.650;2023-08-31T09:41:54;24.70;63.90
7476;DHT22;3779;49.216;8.650;2023-08-31T09:44:43;24.60;64.20
7476;DHT22;3779;49.216;8.650;2023-08-31T09:47:32;24.70;64.10
7476;DHT22;3779;49.216;8.650;2023-08-31T13:21:10;24.70;61.70
7476;DHT22;3779;49.216;8.650;2023-08-31T13:23:56;24.60;61.90
7476;DHT22;3779;49.216;8.650;2023-08-31T13:26:42;24.70;61.90
7476;DHT22;3779;49.216;8.650;2023-08-31T14:49:04;24.90;60.30
7476;DHT22;3779;49.216;8.650;2023-08-31T14:51:50;24.90;60.30
7476;DHT22;3779;49.216;8.650;2023-08-31T14:54:36;24.90;60.30
7476;DHT22;3779;49.216;8.650;2023-08-31T14:57:21;24.90;60.30
7476;DHT22;3779;49.216;8.650;2023-08-31T15:00:08;24.90;60.30
7476;DHT22;3779;49.216;8.650;2023-08-31T15:02:54;24.90;60.30
7476;DHT22;3779;49.216;8.650;2023-08-31T15:05:40;24.90;60.20
7476;DHT22;3779;49.216;8.650;2023-08-31T15:08:38;24.90;60.10
7476;DHT22;3779;49.216;8.650;2023-08-31T15:11:28;24.90;60.30
7476;DHT22;3779;49.216;8.650;2023-08-31T15:14:14;24.90;60.00
7476;DHT22;3779;49.216;8.650;2023-08-31T15:17:00;24.90;60.00
7476;DHT22;3779;49.216;8.650;2023-08-31T15:19:46;24.90;60.30
7476;DHT22;3779;49.216;8.650;2023-08-31T15:22:31;24.90;60.30
7476;DHT22;3779;49.216;8.650;2023-08-31T15:25:17;24.90;60.30
7476;DHT22;3779;49.216;8.650;2023-08-31T15:28:03;25.00;60.20
7476;DHT22;3779;49.216;8.650;2023-08-31T15:30:49;25.00;60.10
7476;DHT22;3779;49.216;8.650;2023-08-31T15:33:35;24.90;60.20
7476;DHT22;3779;49.216;8.650;2023-08-31T15:36:21;24.90;60.10
7476;DHT22;3779;49.216;8.650;2023-08-31T15:39:07;24.90;60.10
7476;DHT22;3779;49.216;8.650;2023-08-31T15:41:53;24.90;60.10
7476;DHT22;3779;49.216;8.650;2023-08-31T15:44:42;24.90;60.10
7476;DHT22;3779;49.216;8.650;2023-08-31T15:47:28;24.90;60.30
7476;DHT22;3779;49.216;8.650;2023-08-31T15:50:14;24.90;60.30
7476;DHT22;3779;49.216;8.650;2023-08-31T15:53:00;24.90;60.30
7476;DHT22;3779;49.216;8.650;2023-08-31T15:55:49;25.00;60.20
7476;DHT22;3779;49.216;8.650;2023-08-31T17:07:55;25.00;60.40
7476;DHT22;3779;49.216;8.650;2023-08-31T17:10:41;25.00;60.60
7476;DHT22;3779;49.216;8.650;2023-08-31T17:13:27;25.00;60.60
7476;DHT22;3779;49.216;8.650;2023-08-31T17:16:13;24.90;60.50
7476;DHT22;3779;49.216;8.650;2023-08-31T17:18:59;24.90;60.60
7476;DHT22;3779;49.216;8.650;2023-08-31T17:21:45;24.90;60.60
7476;DHT22;3779;49.216;8.650;2023-08-31T17:24:31;24.90;60.60
7476;DHT22;3779;49.216;8.650;2023-08-31T17:27:19;24.90;60.70
7476;DHT22;3779;49.216;8.650;2023-08-31T17:30:05;25.00;60.70
7476;DHT22;3779;49.216;8.650;2023-08-31T17:32:52;25.00;60.60
7476;DHT22;3779;49.216;8.650;2023-08-31T17:35:38;25.00;60.50
7476;DHT22;3779;49.216;8.650;2023-08-31T17:38:24;25.10;60.50
7476;DHT22;3779;49.216;8.650;2023-08-31T17:41:10;25.10;60.40
7476;DHT22;3779;49.216;8.650;2023-08-31T17:43:55;25.10;60.30
7476;DHT22;3779;49.216;8.650;2023-08-31T17:46:41;25.10;60.30
7476;DHT22;3779;49.216;8.650;2023-08-31T17:49:27;25.10;60.40
7476;DHT22;3779;49.216;8.650;2023-08-31T17:52:13;25.10;60.20
7476;DHT22;3779;49.216;8.650;2023-08-31T17:54:59;25.10;60.10
7476;DHT22;3779;49.216;8.650;2023-08-31T17:57:45;25.20;60.20
7476;DHT22;3779;49.216;8.650;2023-08-31T18:00:31;25.20;60.10
7476;DHT22;3779;49.216;8.650;2023-08-31T18:03:17;25.20;60.20
7476;DHT22;3779;49.216;8.650;2023-08-31T18:06:02;25.10;60.40
7476;DHT22;3779;49.216;8.650;2023-08-31T18:08:48;25.20;60.40
7476;DHT22;3779;49.216;8.650;2023-08-31T18:11:34;25.20;60.40
7476;DHT22;3779;49.216;8.650;2023-08-31T18:14:20;25.20;60.20
7476;DHT22;3779;49.216;8.650;2023-08-31T18:17:06;25.20;60.30
7476;DHT22;3779;49.216;8.650;2023-08-31T19:33:30;25.20;60.90
7476;DHT22;3779;49.216;8.650;2023-08-31T19:36:16;25.20;60.90
7476;DHT22;3779;49.216;8.650;2023-08-31T19:39:02;25.20;60.90
7476;DHT22;3779;49.216;8.650;2023-08-31T19:41:47;25.30;60.70
7476;DHT22;3779;49.216;8.650;2023-08-31T19:44:33;25.30;60.70
7476;DHT22;3779;49.216;8.650;2023-08-31T19:47:19;25.30;60.70
7476;DHT22;3779;49.216;8.650;2023-08-31T19:50:05;25.20;61.00
7476;DHT22;3779;49.216;8.650;2023-08-31T19:52:51;25.20;61.10
7476;DHT22;3779;49.216;8.650;2023-08-31T19:55:37;25.20;61.10
7476;DHT22;3779;49.216;8.650;2023-08-31T19:58:23;25.20;61.00
7476;DHT22;3779;49.216;8.650;2023-08-31T20:01:09;25.20;60.90
7476;DHT22;3779;49.216;8.650;2023-08-31T20:03:55;25.20;61.00
7476;DHT22;3779;49.216;8.650;2023-08-31T20:06:41;25.30;60.90
7476;DHT22;3779;49.216;8.650;2023-08-31T20:09:26;25.30;60.80
7476;DHT22;3779;49.216;8.650;2023-08-31T20:12:12;25.30;60.80
7476;DHT22;3779;49.216;8.650;2023-08-31T20:14:58;25.20;61.00
7476;DHT22;3779;49.216;8.650;2023-08-31T20:17:44;25.20;61.10
7476;DHT22;3779;49.216;8.650;2023-08-31T20:20:30;25.20;61.20
7476;DHT22;3779;49.216;8.650;2023-08-31T20:23:15;25.30;61.00
7476;DHT22;3779;49.216;8.650;2023-08-31T20:26:01;25.30;61.00
7476;DHT22;3779;49.216;8.650;2023-08-31T20:28:47;25.30;61.10
7476;DHT22;3779;49.216;8.650;2023-08-31T20:31:33;25.30;61.20
7476;DHT22;3779;49.216;8.650;2023-08-31T20:34:21;25.20;61.10
7476;DHT22;3779;49.216;8.650;2023-08-31T20:37:07;25.20;61.20
7476;DHT22;3779;49.216;8.650;2023-08-31T20:39:53;25.20;61.40
7476;DHT22;3779;49.216;8.650;2023-08-31T20:42:39;25.10;61.30
7476;DHT22;3779;49.216;8.650;2023-08-31T20:45:24;25.10;61.30
7476;DHT22;3779;49.216;8.650;2023-08-31T20:48:11;25.20;61.40
7476;DHT22;3779;49.216;8.650;2023-08-31T20:51:06;25.20;61.40
7476;DHT22;3779;49.216;8.650;2023-08-31T20:53:52;25.20;61.40
7476;DHT22;3779;49.216;8.650;2023-08-31T20:56:39;25.20;61.40
7476;DHT22;3779;49.216;8.650;2023-08-31T20:59:25;25.20;61.00
7476;DHT22;3779;49.216;8.650;2023-08-31T21:02:11;25.20;61.00
7476;DHT22;3779;49.216;8.650;2023-08-31T21:04:56;25.20;61.20
7476;DHT22;3779;49.216;8.650;2023-08-31T21:07:44;25.20;61.50
7476;DHT22;3779;49.216;8.650;2023-08-31T21:10:30;25.20;61.40
7476;DHT22;3779;49.216;8.650;2023-08-31T21:13:15;25.20;61.40
7476;DHT22;3779;49.216;8.650;2023-08-31T21:16:02;25.20;61.40
7476;DHT22;3779;49.216;8.650;2023-08-31T21:18:50;25.10;61.50
7476;DHT22;3779;49.216;8.650;2023-08-31T21:21:36;25.20;61.50
7476;DHT22;3779;49.216;8.650;2023-08-31T21:24:21;25.20;61.50
7476;DHT22;3779;49.216;8.650;2023-08-31T21:27:07;25.20;61.50
7476;DHT22;3779;49.216;8.650;2023-08-31T21:29:53;25.10;61.50
7476;DHT22;3779;49.216;8.650;2023-08-31T21:32:39;25.10;61.50
7476;DHT22;3779;49.216;8.650;2023-08-31T21:35:25;25.10;61.60
7476;DHT22;3779;49.216;8.650;2023-08-31T21:38:11;25.20;61.70
7476;DHT22;3779;49.216;8.650;2023-08-31T21:41:00;25.10;61.60
7476;DHT22;3779;49.216;8.650;2023-08-31T21:43:50;25.10;61.80
7476;DHT22;3779;49.216;8.650;2023-08-31T21:46:36;25.10;61.60
